Time;durP1;ratioP1;P1;durP2;ratioP2;P2;SDS_P1;SDS_P2;PMS_P1;PMS_P2;Temp;Humidity;BMP_temperature;BMP_pressure;BME280_temperature;BME280_humidity;BME280_pressure;Samples;Min_cycle;Max_cycle;Signal;HPM_P1;HPM_P2
2021/12/20 00:00:40;;;;;;;1.30;1.23;;;1.90;99.90;;;;;;4957439;29;20059;-76
2021/12/20 00:03:06;;;;;;;0.45;0.40;;;1.90;99.90;;;;;;4957438;29;20051;-76
2021/12/20 00:05:31;;;;;;;1.45;1.27;;;1.90;99.90;;;;;;4955838;29;20046;-76
2021/12/20 00:07:57;;;;;;;2.05;1.48;;;1.90;99.90;;;;;;4957269;29;20475;-76
2021/12/20 00:10:23;;;;;;;3.63;0.82;;;1.90;99.90;;;;;;4957122;29;20106;-76
2021/12/20 00:12:49;;;;;;;4.97;1.48;;;1.90;99.90;;;;;;4957401;29;20039;-76
2021/12/20 00:15:16;;;;;;;1.02;0.93;;;1.90;99.90;;;;;;4957059;29;20122;-76
2021/12/20 00:17:43;;;;;;;0.28;0.28;;;1.90;99.90;;;;;;4956929;29;20034;-76
2021/12/20 00:20:09;;;;;;;0.43;0.32;;;1.90;99.90;;;;;;4956655;29;20517;-76
2021/12/20 00:22:35;;;;;;;1.05;0.95;;;1.90;99.90;;;;;;4957115;29;20031;-76
2021/12/20 00:25:01;;;;;;;3.10;0.80;;;1.90;99.90;;;;;;4956144;29;20376;-76
2021/12/20 00:27:27;;;;;;;0.28;0.28;;;1.80;99.90;;;;;;4937568;29;20042;-76
2021/12/20 00:29:52;;;;;;;2.10;1.17;;;1.80;99.90;;;;;;4936917;29;20032;-76
2021/12/20 00:32:18;;;;;;;1.13;1.10;;;1.70;99.90;;;;;;4937707;29;20031;-76
2021/12/20 00:34:45;;;;;;;0.40;0.40;;;1.70;99.90;;;;;;4937703;29;20035;-76
2021/12/20 00:42:41;;;;;;;1.08;1.08;;;1.70;99.90;;;;;;4937995;29;20458;-76
2021/12/20 00:45:08;;;;;;;2.40;1.23;;;1.70;99.90;;;;;;4920300;29;20032;-76
2021/12/20 00:47:35;;;;;;;0.45;0.45;;;1.70;99.90;;;;;;4936197;29;20035;-77
2021/12/20 00:50:01;;;;;;;0.77;0.57;;;1.70;99.90;;;;;;4935918;29;20067;-78
2021/12/20 00:52:26;;;;;;;0.47;0.47;;;1.70;99.90;;;;;;4937371;29;20098;-79
2021/12/20 00:54:52;;;;;;;2.95;1.38;;;1.70;99.90;;;;;;4937407;29;20035;-79
2021/12/20 00:57:18;;;;;;;0.63;0.55;;;1.70;99.90;;;;;;4950269;29;20023;-79
2021/12/20 00:59:43;;;;;;;1.23;1.23;;;1.70;99.90;;;;;;4956405;29;20106;-78
2021/12/20 01:02:09;;;;;;;0.70;0.70;;;1.80;99.90;;;;;;4956574;29;20028;-79
2021/12/20 01:04:35;;;;;;;0.35;0.35;;;1.80;99.90;;;;;;4956297;29;20106;-78
2021/12/20 01:07:01;;;;;;;0.45;0.30;;;1.80;99.90;;;;;;4956460;29;20393;-79
2021/12/20 01:09:26;;;;;;;0.75;0.73;;;1.80;99.90;;;;;;4957008;29;20102;-79
2021/12/20 01:11:53;;;;;;;1.25;1.00;;;1.80;99.90;;;;;;4956300;29;20027;-78
2021/12/20 01:14:23;;;;;;;0.17;0.17;;;1.80;99.90;;;;;;4940479;29;20110;-77
2021/12/20 01:16:51;;;;;;;0.65;0.65;;;1.80;99.90;;;;;;4957906;29;20024;-77
2021/12/20 01:19:17;;;;;;;0.55;0.55;;;1.80;99.90;;;;;;4940293;29;20086;-77
2021/12/20 01:21:43;;;;;;;0.25;0.25;;;1.80;99.90;;;;;;4957639;29;20038;-77
2021/12/20 01:24:09;;;;;;;1.55;1.23;;;1.80;99.90;;;;;;4955908;29;20047;-72
2021/12/20 01:26:35;;;;;;;1.88;1.67;;;1.90;99.90;;;;;;4954493;29;20406;-76
2021/12/20 01:29:00;;;;;;;4.20;1.52;;;1.90;99.90;;;;;;4956025;29;20038;-76
2021/12/20 01:31:26;;;;;;;0.60;0.60;;;1.90;99.90;;;;;;4955912;29;20034;-76
2021/12/20 01:33:52;;;;;;;0.30;0.30;;;1.90;99.90;;;;;;4955894;29;20535;-76
2021/12/20 01:36:18;;;;;;;4.10;1.02;;;1.90;99.90;;;;;;4938343;29;20479;-76
2021/12/20 01:38:44;;;;;;;0.75;0.75;;;1.80;99.90;;;;;;4955732;29;20106;-76
2021/12/20 01:41:10;;;;;;;1.00;0.95;;;1.80;99.90;;;;;;4955673;29;20410;-76
2021/12/20 01:43:37;;;;;;;0.50;0.50;;;1.80;99.90;;;;;;4955720;29;20027;-76
2021/12/20 01:46:04;;;;;;;0.47;0.47;;;1.80;99.90;;;;;;4955498;29;20406;-76
2021/12/20 01:48:31;;;;;;;0.10;0.10;;;1.80;99.90;;;;;;4955200;29;20432;-76
2021/12/20 01:53:25;;;;;;;1.23;1.02;;;1.80;99.90;;;;;;4955415;29;20033;-76
2021/12/20 01:55:54;;;;;;;2.67;1.15;;;1.80;99.90;;;;;;4953819;29;20019;-76
2021/12/20 01:58:20;;;;;;;0.63;0.63;;;1.80;99.90;;;;;;4936615;29;20115;-76
2021/12/20 02:01:04;;;;;;;2.28;2.10;;;1.80;99.90;;;;;;4936091;29;20075;-76
2021/12/20 02:03:32;;;;;;;0.68;0.50;;;1.80;99.90;;;;;;4936747;29;20028;-77
2021/12/20 02:05:59;;;;;;;7.97;1.77;;;1.80;99.90;;;;;;4952616;29;20032;-76
2021/12/20 02:08:28;;;;;;;0.00;0.00;;;1.80;99.90;;;;;;4955088;29;20027;-76
2021/12/20 02:10:57;;;;;;;1.48;1.10;;;1.80;99.90;;;;;;4955207;29;20043;-76
2021/12/20 02:13:27;;;;;;;0.00;0.00;;;1.80;99.90;;;;;;4955207;29;20090;-76
2021/12/20 02:15:54;;;;;;;0.20;0.20;;;1.80;99.90;;;;;;4937316;29;20023;-76
2021/12/20 02:18:19;;;;;;;0.08;0.08;;;1.80;99.90;;;;;;4954607;29;20030;-76
2021/12/20 02:20:45;;;;;;;4.75;1.13;;;1.80;99.90;;;;;;4954824;29;20031;-76
2021/12/20 02:23:11;;;;;;;0.08;0.08;;;1.80;99.90;;;;;;4955039;29;20032;-76
2021/12/20 02:25:37;;;;;;;0.98;0.98;;;1.80;99.90;;;;;;4954633;29;20062;-76
2021/12/20 02:28:10;;;;;;;0.00;0.00;;;1.80;99.90;;;;;;4953519;29;20506;-76
2021/12/20 02:30:44;;;;;;;0.65;0.65;;;1.80;99.90;;;;;;4954995;29;20110;-77
2021/12/20 02:38:38;;;;;;;0.20;0.20;;;1.90;99.90;;;;;;4954889;29;20091;-76
2021/12/20 02:41:14;;;;;;;0.28;0.28;;;1.80;99.90;;;;;;4954638;29;20031;-76
2021/12/20 02:43:43;;;;;;;0.98;0.25;;;1.80;99.90;;;;;;4954754;29;20402;-76
2021/12/20 02:46:30;;;;;;;3.70;1.42;;;1.80;99.90;;;;;;4954646;29;20418;-77
2021/12/20 02:48:56;;;;;;;0.50;0.47;;;1.90;99.90;;;;;;4954028;29;20023;-76
2021/12/20 02:51:26;;;;;;;0.65;0.65;;;1.90;99.90;;;;;;4937195;29;20027;-76
2021/12/20 02:53:56;;;;;;;0.10;0.10;;;1.90;99.90;;;;;;4954626;29;20030;-76
2021/12/20 02:56:23;;;;;;;0.10;0.10;;;2.00;99.90;;;;;;4937042;29;20034;-76
2021/12/20 02:58:49;;;;;;;0.00;0.00;;;1.90;99.90;;;;;;4954577;29;20027;-76
2021/12/20 03:01:15;;;;;;;0.95;0.95;;;1.90;99.90;;;;;;4954580;29;20034;-77
2021/12/20 03:03:41;;;;;;;0.45;0.38;;;1.90;99.90;;;;;;4954613;29;20031;-76
2021/12/20 03:06:48;;;;;;;0.73;0.70;;;1.90;99.90;;;;;;4936979;29;20042;-76
2021/12/20 03:09:18;;;;;;;0.95;0.55;;;1.90;99.90;;;;;;4953666;29;20143;-76
2021/12/20 03:11:46;;;;;;;0.57;0.57;;;2.00;99.90;;;;;;4937226;29;20055;-76
2021/12/20 03:14:19;;;;;;;0.52;0.52;;;2.00;99.90;;;;;;4956718;28;20062;-76
2021/12/20 03:16:45;;;;;;;0.22;0.22;;;2.00;99.90;;;;;;4958394;29;20490;-76
2021/12/20 03:19:10;;;;;;;0.45;0.45;;;2.00;99.90;;;;;;4957829;29;20091;-76
2021/12/20 03:21:36;;;;;;;0.20;0.20;;;1.90;99.90;;;;;;4958104;29;20036;-76
2021/12/20 03:24:03;;;;;;;0.30;0.28;;;2.00;99.90;;;;;;4958145;29;20098;-76
2021/12/20 03:26:29;;;;;;;0.10;0.10;;;2.00;99.90;;;;;;4958145;29;20042;-76
2021/12/20 03:28:55;;;;;;;0.82;0.82;;;2.00;99.90;;;;;;4939395;29;20380;-76
2021/12/20 03:31:20;;;;;;;0.00;0.00;;;2.00;99.90;;;;;;4958117;29;20035;-77
2021/12/20 03:33:46;;;;;;;0.25;0.25;;;2.10;99.90;;;;;;4958179;29;20024;-77
2021/12/20 03:36:12;;;;;;;1.05;0.52;;;2.10;99.90;;;;;;4957612;29;20043;-77
2021/12/20 03:38:37;;;;;;;8.30;0.90;;;2.00;99.90;;;;;;4957898;29;20031;-76
2021/12/20 03:41:03;;;;;;;0.00;0.00;;;2.00;99.90;;;;;;4957878;29;20475;-76
2021/12/20 03:43:31;;;;;;;1.77;0.65;;;2.00;99.90;;;;;;4957677;29;20027;-76
2021/12/20 03:46:01;;;;;;;0.47;0.47;;;2.00;99.90;;;;;;4958385;28;20023;-77
2021/12/20 03:48:27;;;;;;;0.10;0.10;;;2.00;99.90;;;;;;4976698;28;20107;-76
2021/12/20 03:50:54;;;;;;;0.15;0.15;;;2.00;99.90;;;;;;4976859;28;20033;-77
2021/12/20 03:53:19;;;;;;;0.30;0.30;;;2.00;99.90;;;;;;4976956;28;20015;-76
2021/12/20 03:55:45;;;;;;;1.00;0.93;;;2.00;99.90;;;;;;4976796;28;20027;-76
2021/12/20 03:58:11;;;;;;;0.50;0.50;;;2.00;99.90;;;;;;4976790;28;20034;-76
2021/12/20 04:00:37;;;;;;;0.00;0.00;;;2.00;99.90;;;;;;4975932;28;20026;-72
2021/12/20 04:03:09;;;;;;;0.22;0.22;;;2.00;99.90;;;;;;4976827;28;20538;-76
2021/12/20 04:05:34;;;;;;;0.52;0.45;;;2.00;99.90;;;;;;4976711;28;20106;-76
2021/12/20 04:08:00;;;;;;;0.32;0.32;;;2.10;99.90;;;;;;4976709;28;20118;-77
2021/12/20 04:10:26;;;;;;;0.65;0.60;;;2.10;99.90;;;;;;4975829;28;20058;-76
2021/12/20 04:12:51;;;;;;;0.00;0.00;;;2.10;99.90;;;;;;4975716;28;20028;-76
2021/12/20 04:15:17;;;;;;;0.10;0.10;;;2.10;99.90;;;;;;4976479;28;20474;-76
2021/12/20 04:17:43;;;;;;;0.03;0.03;;;2.10;99.90;;;;;;4976384;28;20085;-76
2021/12/20 04:20:09;;;;;;;0.85;0.52;;;2.10;99.90;;;;;;4976026;28;20078;-79
2021/12/20 04:22:34;;;;;;;0.10;0.10;;;2.10;99.90;;;;;;4957931;28;20129;-79
2021/12/20 04:25:00;;;;;;;0.00;0.00;;;2.10;99.90;;;;;;4976308;28;20526;-79
2021/12/20 04:27:26;;;;;;;0.93;0.93;;;2.10;99.90;;;;;;4975425;28;20031;-79
2021/12/20 04:29:54;;;;;;;0.80;0.40;;;2.10;99.90;;;;;;4975916;28;20074;-79
2021/12/20 04:32:19;;;;;;;0.28;0.28;;;2.10;99.90;;;;;;4976359;28;20023;-79
2021/12/20 04:34:45;;;;;;;0.32;0.32;;;2.10;99.90;;;;;;4976233;28;20031;-79
2021/12/20 04:37:11;;;;;;;0.77;0.60;;;2.00;99.90;;;;;;4975991;28;20046;-79
2021/12/20 04:39:37;;;;;;;0.73;0.65;;;2.10;99.90;;;;;;4976178;28;20038;-79
2021/12/20 04:42:04;;;;;;;0.43;0.43;;;2.00;99.90;;;;;;4976129;28;20026;-79
2021/12/20 04:44:29;;;;;;;0.25;0.25;;;2.00;99.90;;;;;;4958871;28;20406;-79
2021/12/20 04:46:55;;;;;;;0.32;0.32;;;2.00;99.90;;;;;;4950290;29;20027;-79
2021/12/20 04:49:24;;;;;;;2.35;0.98;;;2.10;99.90;;;;;;4956130;29;20047;-78
2021/12/20 04:51:51;;;;;;;1.48;0.77;;;2.10;99.90;;;;;;4956483;29;20024;-79
2021/12/20 04:54:17;;;;;;;0.00;0.00;;;2.10;99.90;;;;;;4956542;29;20034;-79
2021/12/20 04:56:43;;;;;;;4.47;0.85;;;2.10;99.90;;;;;;4956532;29;20457;-79
2021/12/20 04:59:08;;;;;;;0.00;0.00;;;2.10;99.90;;;;;;4956549;29;20042;-80
2021/12/20 05:01:34;;;;;;;0.00;0.00;;;2.20;99.90;;;;;;4956422;29;20031;-79
2021/12/20 05:04:00;;;;;;;0.10;0.10;;;2.10;99.90;;;;;;4939082;29;20038;-78
2021/12/20 05:06:25;;;;;;;0.00;0.00;;;2.10;99.90;;;;;;4956562;28;20031;-79
2021/12/20 05:08:54;;;;;;;0.00;0.00;;;2.10;99.90;;;;;;4956161;29;20042;-79
2021/12/20 05:11:21;;;;;;;0.30;0.30;;;2.10;99.90;;;;;;4956163;29;20046;-78
2021/12/20 05:13:47;;;;;;;0.10;0.10;;;2.10;99.90;;;;;;4956472;29;20050;-79
2021/12/20 05:16:13;;;;;;;0.32;0.30;;;2.10;99.90;;;;;;4938920;29;20487;-79
2021/12/20 05:18:39;;;;;;;0.00;0.00;;;2.00;99.90;;;;;;4955876;29;20058;-78
2021/12/20 05:21:05;;;;;;;0.25;0.25;;;2.00;99.90;;;;;;4955824;29;20031;-79
2021/12/20 05:23:30;;;;;;;0.00;0.00;;;2.00;99.90;;;;;;4956199;29;20407;-79
2021/12/20 05:25:56;;;;;;;0.00;0.00;;;2.00;99.90;;;;;;4963127;28;20093;-79
2021/12/20 05:28:23;;;;;;;0.00;0.00;;;2.10;99.90;;;;;;4956317;28;20027;-79
2021/12/20 05:30:51;;;;;;;0.20;0.05;;;2.00;99.90;;;;;;4957971;28;20383;-79
2021/12/20 05:33:16;;;;;;;12.05;0.80;;;2.10;99.90;;;;;;4975117;28;20082;-79
2021/12/20 05:35:42;;;;;;;0.20;0.20;;;2.00;99.90;;;;;;4974617;28;20023;-79
2021/12/20 05:38:07;;;;;;;0.15;0.15;;;2.10;99.90;;;;;;4974979;28;20046;-79
2021/12/20 05:40:35;;;;;;;0.08;0.08;;;2.10;99.90;;;;;;4974949;28;20054;-78
2021/12/20 05:43:01;;;;;;;0.52;0.22;;;2.10;99.90;;;;;;4974266;28;20031;-78
2021/12/20 05:45:26;;;;;;;0.00;0.00;;;2.10;99.90;;;;;;4975030;28;20486;-79
2021/12/20 05:47:52;;;;;;;0.03;0.03;;;2.10;99.90;;;;;;4974694;28;20027;-79
2021/12/20 05:50:20;;;;;;;0.00;0.00;;;2.10;99.90;;;;;;4974452;28;20023;-79
2021/12/20 05:52:46;;;;;;;0.28;0.28;;;2.20;99.90;;;;;;4974714;28;20030;-79
2021/12/20 05:55:13;;;;;;;0.80;0.60;;;2.20;99.90;;;;;;4974733;28;20030;-79
2021/12/20 05:57:38;;;;;;;0.63;0.63;;;2.20;99.90;;;;;;4974250;28;20053;-79
2021/12/20 06:00:14;;;;;;;0.38;0.32;;;2.20;99.90;;;;;;4974588;28;20490;-79
2021/12/20 06:02:41;;;;;;;0.00;0.00;;;2.20;99.90;;;;;;4974594;28;20498;-79
2021/12/20 06:05:08;;;;;;;0.38;0.38;;;2.30;99.90;;;;;;4974372;28;20019;-79
2021/12/20 06:07:38;;;;;;;2.35;1.02;;;2.20;99.90;;;;;;4974209;28;20034;-77
2021/12/20 06:10:05;;;;;;;0.90;0.75;;;2.20;99.90;;;;;;4974295;28;20033;-76
2021/12/20 06:12:31;;;;;;;0.00;0.00;;;2.20;99.90;;;;;;4974392;28;20031;-76
2021/12/20 06:14:56;;;;;;;0.03;0.03;;;2.20;99.90;;;;;;4974421;28;20030;-78
2021/12/20 06:17:22;;;;;;;0.00;0.00;;;2.10;99.90;;;;;;4974104;28;20038;-77
2021/12/20 06:19:47;;;;;;;0.00;0.00;;;2.20;99.90;;;;;;4974180;28;20051;-76
2021/12/20 06:22:13;;;;;;;0.00;0.00;;;2.20;99.90;;;;;;4974072;28;20037;-76
2021/12/20 06:24:39;;;;;;;0.00;0.00;;;2.20;99.90;;;;;;4974260;28;20057;-77
2021/12/20 06:27:05;;;;;;;0.52;0.20;;;2.20;99.90;;;;;;4974179;28;20474;-77
2021/12/20 06:29:31;;;;;;;0.20;0.20;;;2.20;99.90;;;;;;4961730;28;20032;-77
2021/12/20 06:31:56;;;;;;;0.00;0.00;;;2.10;99.90;;;;;;4972147;28;20073;-76
2021/12/20 06:34:22;;;;;;;0.20;0.20;;;2.10;99.90;;;;;;4973913;28;20119;-76
2021/12/20 06:36:51;;;;;;;0.28;0.28;;;2.20;99.90;;;;;;4959929;28;20019;-76
2021/12/20 06:39:17;;;;;;;0.47;0.22;;;2.10;99.90;;;;;;4968270;28;20027;-77
2021/12/20 06:41:43;;;;;;;0.40;0.40;;;2.10;99.90;;;;;;4973850;28;20085;-77
2021/12/20 06:44:09;;;;;;;0.45;0.45;;;2.10;99.90;;;;;;4973924;28;20073;-76
2021/12/20 06:46:43;;;;;;;0.82;0.80;;;2.00;99.90;;;;;;4973922;28;20054;-77
2021/12/20 06:49:10;;;;;;;0.20;0.20;;;2.00;99.90;;;;;;4972279;28;20031;-77
2021/12/20 06:51:43;;;;;;;0.00;0.00;;;2.00;99.90;;;;;;4955977;28;20024;-77
2021/12/20 06:54:12;;;;;;;0.00;0.00;;;2.00;99.90;;;;;;4954379;29;20031;-77
2021/12/20 06:56:38;;;;;;;0.00;0.00;;;2.00;99.90;;;;;;4937159;29;20023;-76
2021/12/20 06:59:04;;;;;;;0.20;0.20;;;2.00;99.90;;;;;;4954566;29;20028;-78
2021/12/20 07:01:30;;;;;;;0.50;0.50;;;2.00;99.90;;;;;;4953605;29;20031;-82
2021/12/20 07:03:56;;;;;;;0.30;0.30;;;2.00;99.90;;;;;;4936442;29;20039;-76
2021/12/20 07:06:22;;;;;;;0.55;0.55;;;2.10;99.90;;;;;;4953634;28;20027;-76
2021/12/20 07:08:48;;;;;;;0.30;0.30;;;2.10;99.90;;;;;;4960883;28;20034;-76
2021/12/20 07:11:14;;;;;;;0.10;0.10;;;2.10;99.90;;;;;;4951945;28;20486;-76
2021/12/20 07:13:40;;;;;;;0.10;0.10;;;2.00;99.90;;;;;;4958205;28;20433;-76
2021/12/20 07:16:07;;;;;;;0.25;0.25;;;2.00;99.90;;;;;;4974150;28;20030;-77
2021/12/20 07:18:33;;;;;;;0.20;0.10;;;2.00;99.90;;;;;;4948128;28;20043;-77
2021/12/20 07:20:59;;;;;;;2.38;0.85;;;2.00;99.90;;;;;;4960080;28;20030;-77
2021/12/20 07:23:24;;;;;;;0.00;0.00;;;2.00;99.90;;;;;;4958784;28;20026;-77
2021/12/20 07:25:51;;;;;;;0.75;0.28;;;2.00;99.90;;;;;;4970267;28;20019;-77
2021/12/20 07:28:17;;;;;;;0.00;0.00;;;2.00;99.90;;;;;;4971124;28;20023;-77
2021/12/20 07:30:45;;;;;;;0.00;0.00;;;2.00;99.90;;;;;;4949247;28;20031;-77
2021/12/20 07:33:11;;;;;;;0.25;0.22;;;2.00;99.90;;;;;;4953286;28;20049;-77
2021/12/20 07:35:37;;;;;;;0.80;0.80;;;2.00;99.90;;;;;;4953179;29;20094;-77
2021/12/20 07:38:04;;;;;;;0.15;0.15;;;2.00;99.90;;;;;;4961505;28;20026;-77
2021/12/20 07:40:30;;;;;;;1.48;0.55;;;2.00;99.90;;;;;;4954299;28;20077;-77
2021/12/20 07:42:56;;;;;;;0.00;0.00;;;2.00;99.90;;;;;;4971480;28;20579;-76
2021/12/20 07:45:22;;;;;;;0.00;0.00;;;2.00;99.90;;;;;;4954827;28;20023;-77
2021/12/20 07:47:50;;;;;;;0.00;0.00;;;2.00;99.90;;;;;;4938161;29;20129;-77
2021/12/20 07:50:17;;;;;;;0.00;0.00;;;1.90;99.90;;;;;;4963830;28;20094;-77
2021/12/20 07:52:44;;;;;;;0.00;0.00;;;1.90;99.90;;;;;;4960952;28;20028;-77
2021/12/20 07:55:10;;;;;;;0.10;0.10;;;1.90;99.90;;;;;;4957471;28;20028;-77
2021/12/20 07:57:37;;;;;;;0.00;0.00;;;1.90;99.90;;;;;;4968651;28;20027;-76
2021/12/20 08:00:05;;;;;;;0.80;0.80;;;1.90;99.90;;;;;;4954516;28;20077;-77
2021/12/20 08:02:31;;;;;;;0.20;0.20;;;1.90;99.90;;;;;;4939602;29;20126;-77
2021/12/20 08:04:56;;;;;;;0.05;0.05;;;1.90;99.90;;;;;;4956308;28;20118;-77
2021/12/20 08:07:22;;;;;;;0.22;0.22;;;1.90;99.90;;;;;;4958953;28;20487;-77
2021/12/20 08:09:50;;;;;;;0.22;0.22;;;1.90;99.90;;;;;;4968720;28;20386;-78
2021/12/20 08:12:17;;;;;;;1.77;0.70;;;1.90;99.90;;;;;;4938058;28;20994;-78
2021/12/20 08:14:43;;;;;;;2.70;0.82;;;1.90;99.90;;;;;;4959740;28;20060;-77
2021/12/20 08:17:09;;;;;;;0.08;0.08;;;1.90;99.90;;;;;;4938801;29;20609;-77
2021/12/20 08:19:34;;;;;;;0.17;0.17;;;2.00;99.90;;;;;;4966461;28;20167;-77
2021/12/20 08:22:00;;;;;;;0.00;0.00;;;2.00;99.90;;;;;;4975345;28;20035;-77
2021/12/20 08:24:26;;;;;;;0.00;0.00;;;2.00;99.90;;;;;;4944817;28;20462;-77
2021/12/20 08:26:51;;;;;;;0.38;0.20;;;2.00;99.90;;;;;;4969611;28;20031;-77
2021/12/20 08:29:17;;;;;;;1.40;1.10;;;2.00;99.90;;;;;;4953500;28;20079;-77
2021/12/20 08:31:43;;;;;;;0.00;0.00;;;2.00;99.90;;;;;;4954395;28;20078;-77
2021/12/20 08:34:08;;;;;;;0.20;0.20;;;2.00;99.90;;;;;;4955703;29;20039;-77
2021/12/20 08:36:34;;;;;;;0.00;0.00;;;2.00;99.90;;;;;;4955307;28;20042;-77
2021/12/20 08:39:00;;;;;;;0.08;0.08;;;2.00;99.90;;;;;;4956012;28;20058;-78
2021/12/20 08:41:25;;;;;;;0.60;0.60;;;2.10;99.90;;;;;;4958571;28;20039;-78
2021/12/20 08:43:51;;;;;;;0.52;0.30;;;2.10;99.90;;;;;;4955830;29;20038;-77
2021/12/20 08:46:18;;;;;;;0.25;0.25;;;2.10;99.90;;;;;;4957737;28;20037;-77
2021/12/20 08:48:45;;;;;;;0.00;0.00;;;2.00;99.90;;;;;;4973533;28;20022;-77
2021/12/20 08:51:11;;;;;;;0.00;0.00;;;2.10;99.90;;;;;;4964360;28;20471;-77
2021/12/20 08:53:37;;;;;;;0.98;0.55;;;2.10;99.90;;;;;;4953989;28;20023;-77
2021/12/20 08:56:04;;;;;;;0.00;0.00;;;2.10;99.90;;;;;;4937843;28;20094;-78
2021/12/20 08:58:30;;;;;;;0.00;0.00;;;2.10;99.90;;;;;;4955894;28;20031;-77
2021/12/20 09:00:56;;;;;;;0.68;0.55;;;2.20;99.90;;;;;;4959588;28;20019;-77
2021/12/20 09:03:22;;;;;;;0.00;0.00;;;2.30;99.90;;;;;;4956352;28;20031;-77
2021/12/20 09:05:48;;;;;;;0.00;0.00;;;2.30;99.90;;;;;;4937068;29;20467;-77
2021/12/20 09:08:17;;;;;;;0.10;0.10;;;2.30;99.90;;;;;;4954448;28;20062;-77
2021/12/20 09:10:43;;;;;;;0.52;0.52;;;2.30;99.90;;;;;;4937772;28;20030;-77
2021/12/20 09:13:09;;;;;;;0.88;0.43;;;2.30;99.90;;;;;;4951057;29;20028;-77
2021/12/20 09:15:36;;;;;;;0.17;0.17;;;2.30;99.90;;;;;;4954639;28;20462;-77
2021/12/20 09:18:03;;;;;;;0.00;0.00;;;2.30;99.90;;;;;;4969033;28;20034;-78
2021/12/20 09:20:30;;;;;;;0.10;0.10;;;2.40;99.90;;;;;;4973484;28;20046;-78
2021/12/20 09:23:07;;;;;;;0.20;0.20;;;2.40;99.90;;;;;;4976100;28;20110;-76
2021/12/20 09:25:37;;;;;;;0.00;0.00;;;2.40;99.90;;;;;;4955000;28;20023;-77
2021/12/20 09:28:08;;;;;;;0.00;0.00;;;2.40;99.90;;;;;;4942448;28;20069;-78
2021/12/20 09:30:34;;;;;;;0.10;0.10;;;2.40;99.90;;;;;;4954772;28;20031;-74
2021/12/20 09:33:00;;;;;;;0.03;0.03;;;2.40;99.90;;;;;;4954131;28;20027;-77
2021/12/20 09:35:26;;;;;;;0.00;0.00;;;2.40;99.90;;;;;;4936130;29;20042;-77
2021/12/20 09:37:52;;;;;;;0.10;0.10;;;2.50;99.90;;;;;;4955518;28;20027;-77
2021/12/20 09:40:31;;;;;;;0.00;0.00;;;2.50;99.90;;;;;;4955065;28;20038;-77
2021/12/20 09:42:58;;;;;;;0.38;0.20;;;2.50;99.90;;;;;;4944224;29;20023;-78
2021/12/20 09:45:24;;;;;;;0.10;0.10;;;2.60;99.90;;;;;;4946045;28;20031;-78
2021/12/20 09:47:51;;;;;;;0.00;0.00;;;2.60;99.90;;;;;;4958698;28;20027;-77
2021/12/20 09:50:17;;;;;;;0.30;0.30;;;2.70;99.90;;;;;;4953857;28;20038;-78
2021/12/20 09:52:44;;;;;;;0.65;0.65;;;2.80;99.90;;;;;;4953242;28;20031;-78
2021/12/20 09:55:11;;;;;;;0.00;0.00;;;2.90;99.90;;;;;;4953732;28;20023;-78
2021/12/20 09:57:37;;;;;;;0.00;0.00;;;2.90;99.90;;;;;;4956366;28;20038;-78
2021/12/20 10:00:07;;;;;;;0.10;0.10;;;2.90;99.90;;;;;;4954913;28;20110;-77
2021/12/20 10:02:32;;;;;;;0.52;0.50;;;2.90;99.90;;;;;;4953435;28;20509;-78
2021/12/20 10:04:58;;;;;;;0.00;0.00;;;2.80;99.90;;;;;;4936861;29;20034;-78
2021/12/20 10:07:25;;;;;;;0.28;0.28;;;2.90;99.90;;;;;;4959731;28;20088;-77
2021/12/20 10:09:52;;;;;;;0.20;0.20;;;2.90;99.90;;;;;;4970170;28;20027;-77
2021/12/20 10:12:24;;;;;;;3.10;1.23;;;2.90;99.90;;;;;;4972532;28;20026;-77
2021/12/20 10:15:10;;;;;;;0.00;0.00;;;2.90;99.90;;;;;;4972730;28;20031;-77
2021/12/20 10:17:58;;;;;;;0.05;0.05;;;3.00;99.90;;;;;;4962677;28;20028;-77
2021/12/20 10:20:26;;;;;;;0.03;0.03;;;3.00;99.90;;;;;;4951381;28;20054;-77
2021/12/20 10:22:53;;;;;;;0.28;0.28;;;3.00;99.90;;;;;;4953086;28;20501;-77
2021/12/20 10:25:27;;;;;;;0.00;0.00;;;3.00;99.90;;;;;;4970439;28;20101;-77
2021/12/20 10:28:02;;;;;;;0.43;0.43;;;3.00;99.90;;;;;;4970531;28;20042;-77
2021/12/20 10:30:31;;;;;;;0.00;0.00;;;3.00;99.90;;;;;;4960421;28;20035;-77
2021/12/20 10:32:57;;;;;;;0.00;0.00;;;3.10;99.90;;;;;;4949822;29;20023;-77
2021/12/20 10:35:26;;;;;;;0.00;0.00;;;3.10;99.90;;;;;;4953007;28;20019;-77
2021/12/20 10:37:59;;;;;;;0.20;0.20;;;3.00;99.90;;;;;;4935972;28;20054;-77
2021/12/20 10:40:25;;;;;;;0.00;0.00;;;3.00;99.90;;;;;;4937242;29;20035;-77
2021/12/20 10:42:52;;;;;;;0.00;0.00;;;3.00;99.90;;;;;;4953962;29;20042;-77
2021/12/20 10:45:20;;;;;;;1.55;0.28;;;2.90;99.90;;;;;;4957014;28;20490;-77
2021/12/20 10:47:48;;;;;;;0.00;0.00;;;2.90;99.90;;;;;;4958101;28;20562;-77
2021/12/20 10:50:34;;;;;;;0.32;0.32;;;2.90;99.90;;;;;;4960466;28;20027;-77
2021/12/20 10:53:20;;;;;;;0.05;0.03;;;2.90;99.90;;;;;;4953357;28;20854;-77
2021/12/20 10:55:45;;;;;;;0.00;0.00;;;3.00;99.90;;;;;;4951552;28;20031;-77
2021/12/20 10:58:36;;;;;;;0.00;0.00;;;3.00;99.90;;;;;;4962532;28;20039;-77
2021/12/20 11:04:00;;;;;;;0.20;0.20;;;3.00;99.90;;;;;;4973627;28;20033;-77
2021/12/20 11:06:41;;;;;;;0.10;0.10;;;3.00;99.90;;;;;;4953220;28;20034;-77
2021/12/20 11:09:18;;;;;;;0.00;0.00;;;3.10;99.90;;;;;;4954401;28;20031;-77
2021/12/20 11:11:51;;;;;;;0.00;0.00;;;3.10;99.90;;;;;;4955483;28;20561;-77
2021/12/20 11:14:18;;;;;;;0.00;0.00;;;3.10;99.90;;;;;;4953304;28;20094;-77
2021/12/20 11:16:48;;;;;;;0.65;0.25;;;3.20;99.90;;;;;;4953322;28;20078;-77
2021/12/20 11:19:40;;;;;;;1.20;1.08;;;3.30;99.90;;;;;;4952173;28;20126;-77
2021/12/20 11:22:11;;;;;;;0.10;0.10;;;3.40;99.90;;;;;;4942604;28;20040;-78
2021/12/20 11:24:52;;;;;;;0.00;0.00;;;3.40;99.90;;;;;;4938277;29;20026;-77
2021/12/20 11:27:19;;;;;;;16.98;1.85;;;3.50;99.90;;;;;;4957282;28;20090;-77
2021/12/20 11:29:47;;;;;;;0.13;0.13;;;3.40;99.90;;;;;;4963509;28;20397;-78
2021/12/20 11:32:14;;;;;;;0.30;0.30;;;3.50;99.90;;;;;;4953468;28;20031;-77
2021/12/20 11:34:42;;;;;;;3.30;0.38;;;3.40;99.90;;;;;;4956638;28;20023;-77
2021/12/20 11:37:16;;;;;;;1.55;1.30;;;3.40;99.90;;;;;;4956220;28;20027;-77
2021/12/20 11:39:43;;;;;;;0.10;0.10;;;3.30;99.90;;;;;;4940507;28;20576;-78
2021/12/20 11:42:12;;;;;;;0.00;0.00;;;3.30;99.90;;;;;;4957180;28;20398;-77
2021/12/20 11:44:38;;;;;;;0.00;0.00;;;3.30;99.90;;;;;;4940455;29;20034;-77
2021/12/20 11:47:55;;;;;;;0.00;0.00;;;3.50;99.90;;;;;;4936405;29;20028;-77
2021/12/20 11:50:30;;;;;;;0.30;0.30;;;3.50;99.90;;;;;;4901061;29;20605;-77
2021/12/20 11:53:06;;;;;;;0.00;0.00;;;3.50;99.90;;;;;;4920039;29;20522;-77
2021/12/20 11:55:33;;;;;;;0.10;0.10;;;3.50;99.90;;;;;;4936321;29;20419;-77
2021/12/20 11:58:05;;;;;;;0.00;0.00;;;3.60;99.90;;;;;;4923238;29;20028;-77
2021/12/20 12:00:36;;;;;;;0.68;0.68;;;3.40;99.90;;;;;;4918559;29;20618;-77
2021/12/20 12:03:15;;;;;;;0.30;0.30;;;3.40;99.90;;;;;;4920053;29;20040;-79
2021/12/20 12:06:11;;;;;;;0.50;0.40;;;3.30;99.90;;;;;;4935903;29;20134;-77
2021/12/20 12:08:41;;;;;;;2.38;1.13;;;3.40;99.90;;;;;;4925668;29;20131;-77
2021/12/20 12:11:07;;;;;;;0.43;0.43;;;3.40;99.90;;;;;;4921844;29;20028;-78
2021/12/20 12:13:49;;;;;;;0.10;0.10;;;3.40;99.90;;;;;;4915810;29;20091;-77
2021/12/20 12:16:30;;;;;;;0.50;0.33;;;3.30;99.90;;;;;;4923478;29;20035;-77
2021/12/20 12:19:01;;;;;;;0.00;0.00;;;3.40;99.90;;;;;;4927989;29;20044;-77
2021/12/20 12:21:39;;;;;;;0.00;0.00;;;3.50;99.90;;;;;;4942509;28;20030;-77
2021/12/20 12:24:14;;;;;;;0.00;0.00;;;3.40;99.90;;;;;;4967981;28;20023;-77
2021/12/20 12:26:47;;;;;;;0.00;0.00;;;3.40;99.90;;;;;;4956503;28;20027;-77
2021/12/20 12:29:21;;;;;;;0.00;0.00;;;3.50;99.90;;;;;;4954587;28;20398;-77
2021/12/20 12:31:52;;;;;;;0.05;0.05;;;3.40;99.90;;;;;;4955941;28;20062;-77
2021/12/20 12:34:18;;;;;;;0.03;0.03;;;3.50;99.90;;;;;;4960574;28;20058;-78
2021/12/20 12:36:45;;;;;;;0.00;0.00;;;3.50;99.90;;;;;;4954450;28;20036;-77
2021/12/20 12:39:21;;;;;;;0.55;0.25;;;3.60;99.90;;;;;;4954628;28;20035;-77
2021/12/20 12:41:49;;;;;;;0.00;0.00;;;3.60;99.90;;;;;;4956561;28;20478;-77
2021/12/20 12:44:28;;;;;;;0.00;0.00;;;3.70;99.90;;;;;;4969633;28;20390;-77
2021/12/20 12:47:13;;;;;;;0.17;0.17;;;3.70;99.90;;;;;;4963422;28;20074;-78
2021/12/20 12:49:43;;;;;;;1.98;0.98;;;3.80;99.90;;;;;;4972908;28;20425;-77
2021/12/20 12:52:18;;;;;;;0.10;0.10;;;3.80;99.90;;;;;;4945903;29;20082;-77
2021/12/20 12:54:46;;;;;;;0.00;0.00;;;3.80;99.90;;;;;;4964049;28;20019;-78
2021/12/20 12:57:12;;;;;;;0.00;0.00;;;3.70;99.90;;;;;;4966038;28;20031;-77
2021/12/20 12:59:42;;;;;;;0.45;0.35;;;3.70;99.90;;;;;;4972911;28;20033;-77
2021/12/20 13:02:10;;;;;;;0.10;0.10;;;3.60;99.90;;;;;;4965172;28;20038;-77
2021/12/20 13:04:49;;;;;;;0.73;0.40;;;3.60;99.90;;;;;;4973499;28;20402;-77
2021/12/20 13:07:19;;;;;;;12.07;0.80;;;3.70;99.90;;;;;;4948860;29;20130;-77
2021/12/20 13:09:49;;;;;;;0.00;0.00;;;3.80;99.90;;;;;;4958754;28;20062;-76
2021/12/20 13:12:19;;;;;;;0.30;0.30;;;3.90;99.90;;;;;;4966794;28;20505;-77
2021/12/20 13:15:11;;;;;;;0.00;0.00;;;3.80;99.90;;;;;;4973770;28;20023;-77
2021/12/20 13:17:43;;;;;;;0.70;0.30;;;3.70;99.90;;;;;;4957227;28;20034;-77
2021/12/20 13:20:18;;;;;;;0.00;0.00;;;3.70;99.90;;;;;;4953728;28;20050;-77